createdAt,value
2023-02-11T00:01:45.781Z,101243.88
2023-02-11T00:04:17.035Z,101251.25
2023-02-11T00:06:47.485Z,101249.44
2023-02-11T00:09:20.054Z,101248.25
2023-02-11T00:11:50.876Z,101245.94
2023-02-11T00:14:21.897Z,101249.34
2023-02-11T00:16:52.542Z,101256.28
2023-02-11T00:19:23.405Z,101241.63
2023-02-11T00:21:54.002Z,101245.00
2023-02-11T00:24:24.885Z,101243.53
2023-02-11T00:26:55.188Z,101246.91
2023-02-11T00:29:26.638Z,101244.88
2023-02-11T00:31:59.881Z,101239.16
2023-02-11T00:34:30.364Z,101248.44
2023-02-11T00:37:09.905Z,101253.97
2023-02-11T00:39:40.512Z,101261.91
2023-02-11T00:42:16.494Z,101254.81
2023-02-11T00:44:48.394Z,101260.22
2023-02-11T00:47:20.327Z,101259.88
2023-02-11T00:49:50.692Z,101267.28
2023-02-11T00:52:22.580Z,101273.00
2023-02-11T00:54:53.395Z,101264.38
2023-02-11T00:57:27.520Z,101264.38
2023-02-11T01:00:00.751Z,101252.41
2023-02-11T01:02:33.989Z,101256.13
2023-02-11T01:05:06.640Z,101260.00
2023-02-11T01:07:37.343Z,101261.50
2023-02-11T01:10:08.222Z,101255.75
2023-02-11T01:12:39.126Z,101261.81
2023-02-11T01:15:11.298Z,101259.09
2023-02-11T01:17:44.412Z,101260.75
2023-02-11T01:20:18.813Z,101254.19
2023-02-11T01:22:49.281Z,101255.00
2023-02-11T01:25:20.125Z,101258.19
2023-02-11T01:27:52.863Z,101252.66
2023-02-11T01:30:23.416Z,101245.88
2023-02-11T01:32:54.517Z,101236.78
2023-02-11T01:35:25.807Z,101242.66
2023-02-11T01:37:56.724Z,101234.22
2023-02-11T01:40:28.247Z,101228.28
2023-02-11T01:42:59.566Z,101230.63
2023-02-11T01:45:51.334Z,101231.97
2023-02-11T01:48:33.437Z,101232.63
2023-02-11T01:51:29.259Z,101224.78
2023-02-11T01:54:20.131Z,101227.94
2023-02-11T01:57:12.310Z,101225.91
2023-02-11T02:00:06.810Z,101218.28
2023-02-11T02:02:58.729Z,101220.63
2023-02-11T02:05:32.345Z,101223.94
2023-02-11T02:08:18.846Z,101223.19
2023-02-11T02:10:55.638Z,101224.88
2023-02-11T02:13:31.054Z,101211.66
2023-02-11T02:16:09.675Z,101207.56
2023-02-11T02:18:55.734Z,101210.84
2023-02-11T02:22:17.082Z,101210.59
2023-02-11T02:24:57.636Z,101214.03
2023-02-11T02:27:31.176Z,101196.19
2023-02-11T02:30:26.153Z,101191.16
2023-02-11T02:33:23.603Z,101201.34
2023-02-11T02:36:11.243Z,101190.69
2023-02-11T02:38:53.019Z,101199.16
2023-02-11T02:41:32.241Z,101193.13
2023-02-11T02:44:03.775Z,101191.81
2023-02-11T02:46:43.451Z,101183.03
2023-02-11T02:49:15.470Z,101183.09
2023-02-11T02:52:07.700Z,101179.56
2023-02-11T02:54:46.311Z,101185.41
2023-02-11T02:57:27.385Z,101184.41
2023-02-11T03:00:18.535Z,101190.66
2023-02-11T03:03:09.789Z,101188.44
2023-02-11T03:05:51.704Z,101173.91
2023-02-11T03:08:46.014Z,101171.88
2023-02-11T03:11:20.284Z,101168.69
2023-02-11T03:13:52.168Z,101163.47
2023-02-11T03:16:27.807Z,101163.81
2023-02-11T03:19:02.274Z,101149.63
2023-02-11T03:21:35.407Z,101153.00
2023-02-11T03:24:10.404Z,101154.16
2023-02-11T03:27:01.242Z,101162.00
2023-02-11T03:29:38.275Z,101145.88
2023-02-11T03:32:29.231Z,101143.53
2023-02-11T03:35:05.632Z,101139.44
2023-02-11T03:38:02.108Z,101144.91
2023-02-11T03:40:41.914Z,101138.31
2023-02-11T03:43:20.336Z,101124.31
2023-02-11T03:45:53.014Z,101128.13
2023-02-11T03:48:40.605Z,101120.66
2023-02-11T03:51:15.407Z,101119.34
2023-02-11T03:53:48.509Z,101111.25
2023-02-11T03:56:23.749Z,101110.69
2023-02-11T03:58:55.550Z,101102.38
2023-02-11T04:01:26.534Z,101100.25
2023-02-11T04:03:57.768Z,101087.44
2023-02-11T04:06:39.151Z,101087.53
2023-02-11T04:09:09.791Z,101079.03
2023-02-11T04:11:42.847Z,101075.66
2023-02-11T04:14:14.643Z,101068.59
2023-02-11T04:16:45.839Z,101067.03
2023-02-11T04:19:16.589Z,101069.75
2023-02-11T04:21:53.479Z,101064.34
2023-02-11T04:24:24.630Z,101062.91
2023-02-11T04:26:56.397Z,101048.00
2023-02-11T04:29:27.908Z,101053.31
2023-02-11T04:31:58.524Z,101047.31
2023-02-11T04:34:29.769Z,101039.03
2023-02-11T04:37:00.938Z,101026.00
2023-02-11T04:39:31.727Z,101029.34
2023-02-11T04:42:02.993Z,101026.88
2023-02-11T04:44:34.281Z,101019.25
2023-02-11T04:47:04.560Z,101012.66
2023-02-11T04:49:35.104Z,101010.81
2023-02-11T04:52:05.583Z,101010.03
2023-02-11T04:54:36.859Z,101010.41
2023-02-11T04:57:08.371Z,101004.63
2023-02-11T04:59:39.331Z,101003.16
2023-02-11T05:02:12.617Z,101001.25
2023-02-11T05:04:43.628Z,100998.72
2023-02-11T05:07:23.196Z,101009.53
2023-02-11T05:09:54.109Z,100999.50
2023-02-11T05:12:25.060Z,100996.94
2023-02-11T05:14:56.416Z,100992.56
2023-02-11T05:17:27.923Z,100980.66
2023-02-11T05:19:59.222Z,100979.81
2023-02-11T05:22:30.151Z,100980.84
2023-02-11T05:25:01.173Z,100974.16
2023-02-11T05:27:31.853Z,100972.25
2023-02-11T05:30:02.897Z,100974.69
2023-02-11T05:32:34.041Z,100973.03
2023-02-11T05:35:05.146Z,100971.34
2023-02-11T05:37:36.717Z,100971.75
2023-02-11T05:40:07.898Z,100968.00
2023-02-11T05:42:38.821Z,100963.00
2023-02-11T05:45:11.505Z,100965.69
2023-02-11T05:47:42.317Z,100957.97
2023-02-11T05:50:13.560Z,100955.03
2023-02-11T05:52:44.953Z,100948.34
2023-02-11T05:55:15.706Z,100944.59
2023-02-11T05:57:46.617Z,100943.31
2023-02-11T06:00:17.809Z,100936.91
2023-02-11T06:02:48.936Z,100939.13
2023-02-11T06:05:21.070Z,100942.44
2023-02-11T06:07:51.796Z,100929.94
2023-02-11T06:10:22.305Z,100925.97
2023-02-11T06:12:52.873Z,100915.94
2023-02-11T06:15:23.946Z,100911.13
2023-02-11T06:17:54.803Z,100918.22
2023-02-11T06:20:25.767Z,100924.84
2023-02-11T06:22:59.327Z,100916.53
2023-02-11T06:25:30.309Z,100923.00
2023-02-11T06:28:00.992Z,100920.69
2023-02-11T06:30:32.288Z,100929.81
2023-02-11T06:33:03.841Z,100932.91
2023-02-11T06:35:36.351Z,100927.91
2023-02-11T06:38:07.437Z,100929.38
2023-02-11T06:40:38.056Z,100926.88
2023-02-11T06:43:17.850Z,100936.41
2023-02-11T06:45:55.434Z,100938.88
2023-02-11T06:48:28.980Z,100929.31
2023-02-11T06:51:04.740Z,100924.75
2023-02-11T06:53:40.334Z,100928.47
2023-02-11T06:56:17.072Z,100928.47
2023-02-11T06:58:48.201Z,100923.28
2023-02-11T07:01:18.826Z,100928.47
2023-02-11T07:03:49.600Z,100933.06
2023-02-11T07:06:25.766Z,100920.56
2023-02-11T07:08:57.292Z,100922.63
2023-02-11T07:11:32.034Z,100915.16
2023-02-11T07:14:09.730Z,100913.47
2023-02-11T07:16:40.665Z,100906.00
2023-02-11T07:19:11.111Z,100916.84
2023-02-11T07:21:41.427Z,100911.03
2023-02-11T07:24:13.152Z,100913.59
2023-02-11T07:26:45.671Z,100917.75
2023-02-11T07:29:16.629Z,100916.53
2023-02-11T07:31:47.414Z,100921.97
2023-02-11T07:34:18.039Z,100921.16
2023-02-11T07:36:50.136Z,100918.72
2023-02-11T07:39:22.839Z,100920.31
2023-02-11T07:41:53.584Z,100925.16
2023-02-11T07:44:24.152Z,100918.06
2023-02-11T07:46:57.420Z,100922.44
2023-02-11T07:49:36.339Z,100927.47
2023-02-11T07:52:09.611Z,100924.38
2023-02-11T07:54:40.076Z,100936.22
2023-02-11T07:57:10.738Z,100929.59
2023-02-11T07:59:41.453Z,100943.94
2023-02-11T08:02:12.262Z,100935.03
2023-02-11T08:04:42.569Z,100928.41
2023-02-11T08:07:17.102Z,100929.22
2023-02-11T08:09:48.509Z,100932.34
2023-02-11T08:12:19.520Z,100933.75
2023-02-11T08:14:50.340Z,100932.47
2023-02-11T08:17:20.704Z,100934.94
2023-02-11T08:19:51.503Z,100925.78
2023-02-11T08:22:21.875Z,100934.56
2023-02-11T08:24:53.106Z,100944.13
2023-02-11T08:27:23.811Z,100937.50
2023-02-11T08:29:56.051Z,100932.31
2023-02-11T08:32:26.840Z,100939.97
2023-02-11T08:34:57.920Z,100940.78
2023-02-11T08:37:34.146Z,100944.53
2023-02-11T08:40:04.710Z,100945.78
2023-02-11T08:42:35.389Z,100951.19
2023-02-11T08:45:06.873Z,100951.38
2023-02-11T08:47:38.270Z,100969.88
2023-02-11T08:50:11.368Z,100957.81
2023-02-11T08:52:41.724Z,100956.34
2023-02-11T08:55:13.122Z,100965.28
2023-02-11T08:57:43.601Z,100959.44
2023-02-11T09:00:25.073Z,100971.31
2023-02-11T09:02:56.408Z,100972.34
2023-02-11T09:05:28.640Z,100967.09
2023-02-11T09:08:01.937Z,100978.13
2023-02-11T09:10:32.490Z,100975.19
2023-02-11T09:13:03.405Z,100979.72
2023-02-11T09:15:34.431Z,100973.03
2023-02-11T09:18:06.458Z,100984.25
2023-02-11T09:20:36.999Z,100972.22
2023-02-11T09:23:07.961Z,100974.28
2023-02-11T09:25:42.101Z,100972.41
2023-02-11T09:28:13.417Z,100977.25
2023-02-11T09:30:44.482Z,100982.66
2023-02-11T09:33:18.261Z,100984.72
2023-02-11T09:35:48.677Z,100991.34
2023-02-11T09:38:20.323Z,100990.13
2023-02-11T09:40:50.848Z,100987.81
2023-02-11T09:43:34.817Z,100989.63
2023-02-11T09:46:15.124Z,100984.19
2023-02-11T09:48:48.403Z,100986.25
2023-02-11T09:52:00.422Z,100998.38
2023-02-11T09:54:53.740Z,100993.56
2023-02-11T09:57:29.354Z,100995.31
2023-02-11T10:00:01.864Z,100997.38
2023-02-11T10:02:59.607Z,101004.47
2023-02-11T10:05:50.320Z,101009.06
2023-02-11T10:08:24.275Z,101013.16
2023-02-11T10:11:01.812Z,101017.25
2023-02-11T10:13:48.530Z,101019.13
2023-02-11T10:16:30.683Z,101013.91
2023-02-11T10:19:12.244Z,101014.94
2023-02-11T10:21:59.955Z,101018.47
2023-02-11T10:24:31.656Z,101017.16
2023-02-11T10:27:04.159Z,101020.94
2023-02-11T10:29:42.036Z,101018.41
2023-02-11T10:32:27.191Z,101018.78
2023-02-11T10:35:05.596Z,101019.81
2023-02-11T10:37:36.251Z,101032.03
2023-02-11T10:40:14.448Z,101025.72
2023-02-11T10:43:00.179Z,101031.97
2023-02-11T10:45:51.729Z,101023.66
2023-02-11T10:48:42.260Z,101019.50
2023-02-11T10:51:25.932Z,101029.00
2023-02-11T10:54:14.262Z,101027.13
2023-02-11T10:56:54.352Z,101035.59
2023-02-11T10:59:27.808Z,101035.97
2023-02-11T11:02:04.030Z,101035.16
2023-02-11T11:04:42.742Z,101037.88
2023-02-11T11:07:29.214Z,101045.03
2023-02-11T11:10:07.413Z,101051.66
2023-02-11T11:12:47.257Z,101038.78
2023-02-11T11:15:26.583Z,101042.34
2023-02-11T11:18:22.312Z,101043.81
2023-02-11T11:21:02.943Z,101047.91
2023-02-11T11:23:34.610Z,101051.66
2023-02-11T11:26:11.715Z,101053.03
2023-02-11T11:28:58.859Z,101069.75
2023-02-11T11:31:32.756Z,101073.97
2023-02-11T11:34:31.331Z,101070.25
2023-02-11T11:37:12.202Z,101069.31
2023-02-11T11:39:43.167Z,101080.50
2023-02-11T11:42:35.129Z,101066.81
2023-02-11T11:45:26.931Z,101073.69
2023-02-11T11:48:14.646Z,101079.84
2023-02-11T11:50:57.980Z,101087.88
2023-02-11T11:53:47.627Z,101090.00
2023-02-11T11:56:28.419Z,101095.78
2023-02-11T11:59:02.746Z,101089.72
2023-02-11T12:01:40.442Z,101100.72
2023-02-11T12:04:28.098Z,101098.59
2023-02-11T12:07:19.672Z,101103.22
2023-02-11T12:10:15.769Z,101107.53
2023-02-11T12:13:04.280Z,101106.69
2023-02-11T12:16:17.187Z,101118.31
2023-02-11T12:18:55.373Z,101120.38
2023-02-11T12:21:38.248Z,101115.34
2023-02-11T12:24:30.547Z,101122.06
2023-02-11T12:27:04.556Z,101117.00
2023-02-11T12:29:42.167Z,101125.97
2023-02-11T12:32:18.873Z,101129.50
2023-02-11T12:34:49.998Z,101135.75
2023-02-11T12:37:39.319Z,101139.94
2023-02-11T12:40:29.623Z,101147.88
2023-02-11T12:43:24.531Z,101152.44
2023-02-11T12:46:24.910Z,101159.50
2023-02-11T12:49:11.578Z,101156.16
2023-02-11T12:51:56.962Z,101159.72
2023-02-11T12:54:47.317Z,101170.31
2023-02-11T12:57:31.100Z,101170.31
2023-02-11T13:00:09.521Z,101169.84
2023-02-11T13:03:01.769Z,101168.63
2023-02-11T13:05:47.857Z,101165.28
2023-02-11T13:08:33.030Z,101170.22
2023-02-11T13:11:08.885Z,101168.53
2023-02-11T13:13:47.313Z,101172.28
2023-02-11T13:16:38.790Z,101176.09
2023-02-11T13:19:15.278Z,101177.47
2023-02-11T13:22:10.637Z,101175.44
2023-02-11T13:25:04.553Z,101174.78
2023-02-11T13:27:37.789Z,101178.69
2023-02-11T13:30:28.743Z,101185.56
2023-02-11T13:33:01.984Z,101173.09
2023-02-11T13:35:37.751Z,101181.41
2023-02-11T13:38:29.150Z,101188.47
2023-02-11T13:41:54.876Z,101190.44
2023-02-11T13:44:28.206Z,101182.38
2023-02-11T13:47:08.583Z,101187.06
2023-02-11T13:49:44.389Z,101189.09
2023-02-11T13:52:46.005Z,101179.97
2023-02-11T13:55:27.947Z,101181.00
2023-02-11T13:58:10.117Z,101184.38
2023-02-11T14:00:41.297Z,101178.66
2023-02-11T14:03:30.605Z,101182.84
2023-02-11T14:06:27.783Z,101183.72
2023-02-11T14:09:10.894Z,101182.19
2023-02-11T14:11:54.750Z,101178.66
2023-02-11T14:14:37.157Z,101185.75
2023-02-11T14:17:11.545Z,101179.19
2023-02-11T14:19:47.335Z,101175.31
2023-02-11T14:22:20.052Z,101177.00
2023-02-11T14:24:52.112Z,101168.59
2023-02-11T14:27:30.341Z,101168.59
2023-02-11T14:30:16.018Z,101162.34
2023-02-11T14:33:02.193Z,101158.63
2023-02-11T14:36:09.815Z,101169.06
2023-02-11T14:39:06.418Z,101171.09
2023-02-11T14:41:47.468Z,101176.00
2023-02-11T14:44:29.930Z,101173.34
2023-02-11T14:47:01.240Z,101170.78
2023-02-11T14:49:38.323Z,101174.81
2023-02-11T14:52:23.717Z,101169.88
2023-02-11T14:55:04.196Z,101167.38
2023-02-11T14:57:35.143Z,101163.66
2023-02-11T15:00:18.728Z,101165.69
2023-02-11T15:02:49.728Z,101163.16
2023-02-11T15:05:23.442Z,101165.69
2023-02-11T15:07:58.110Z,101166.41
2023-02-11T15:10:36.596Z,101163.72
2023-02-11T15:13:07.535Z,101163.72
2023-02-11T15:15:41.890Z,101165.75
2023-02-11T15:18:23.931Z,101161.38
2023-02-11T15:20:54.628Z,101171.16
2023-02-11T15:23:27.843Z,101167.59
2023-02-11T15:25:58.874Z,101161.72
2023-02-11T15:28:32.022Z,101164.59
2023-02-11T15:31:06.243Z,101165.44
2023-02-11T15:33:36.843Z,101163.78
2023-02-11T15:36:07.857Z,101164.13
2023-02-11T15:38:39.401Z,101167.50
2023-02-11T15:41:35.082Z,101163.78
2023-02-11T15:44:08.972Z,101159.75
2023-02-11T15:46:40.867Z,101160.78
2023-02-11T15:49:20.101Z,101149.47
2023-02-11T15:51:53.478Z,101157.41
2023-02-11T15:54:27.651Z,101154.06
2023-02-11T15:57:05.204Z,101156.09
2023-02-11T15:59:39.292Z,101149.00
2023-02-11T16:02:38.360Z,101156.09
2023-02-11T16:05:10.835Z,101155.78
2023-02-11T16:07:48.910Z,101155.13
2023-02-11T16:10:35.418Z,101155.13
2023-02-11T16:13:08.838Z,101155.47
2023-02-11T16:15:47.756Z,101159.19
2023-02-11T16:18:38.773Z,101155.47
2023-02-11T16:21:18.206Z,101154.16
2023-02-11T16:23:57.192Z,101146.06
2023-02-11T16:26:52.176Z,101149.63
2023-02-11T16:29:30.974Z,101140.31
2023-02-11T16:32:27.156Z,101136.81
2023-02-11T16:35:00.361Z,101129.22
2023-02-11T16:37:33.409Z,101122.16
2023-02-11T16:40:04.356Z,101126.53
2023-02-11T16:42:35.035Z,101120.88
2023-02-11T16:45:06.584Z,101115.84
2023-02-11T16:47:41.832Z,101116.72
2023-02-11T16:50:17.035Z,101116.22
2023-02-11T16:52:48.150Z,101105.78
2023-02-11T16:55:22.025Z,101108.50
2023-02-11T16:57:53.627Z,101111.53
2023-02-11T17:00:24.595Z,101105.84
2023-02-11T17:02:55.333Z,101115.78
2023-02-11T17:05:26.857Z,101108.88
2023-02-11T17:07:57.677Z,101106.56
2023-02-11T17:10:28.081Z,101097.81
2023-02-11T17:12:59.240Z,101105.91
2023-02-11T17:15:29.645Z,101101.69
2023-02-11T17:18:00.830Z,101097.63
2023-02-11T17:20:31.565Z,101095.13
2023-02-11T17:23:02.215Z,101092.94
2023-02-11T17:25:32.569Z,101091.25
2023-02-11T17:28:02.902Z,101088.75
2023-02-11T17:30:36.424Z,101085.88
2023-02-11T17:33:07.016Z,101090.44
2023-02-11T17:35:41.479Z,101084.53
2023-02-11T17:38:11.822Z,101082.19
2023-02-11T17:40:42.485Z,101081.50
2023-02-11T17:43:13.715Z,101075.66
2023-02-11T17:45:44.660Z,101080.19
2023-02-11T17:48:15.306Z,101076.81
2023-02-11T17:50:45.734Z,101074.31
2023-02-11T17:53:16.308Z,101074.31
2023-02-11T17:55:47.064Z,101077.00
2023-02-11T17:58:17.735Z,101074.66
2023-02-11T18:00:54.072Z,101074.66
2023-02-11T18:03:24.664Z,101071.97
2023-02-11T18:06:07.778Z,101070.28
2023-02-11T18:08:38.154Z,101074.16
2023-02-11T18:11:11.829Z,101063.56
2023-02-11T18:13:43.941Z,101061.69
2023-02-11T18:16:17.352Z,101063.72
2023-02-11T18:18:47.684Z,101057.50
2023-02-11T18:21:22.612Z,101050.44
2023-02-11T18:23:53.765Z,101048.75
2023-02-11T18:26:27.252Z,101043.72
2023-02-11T18:29:02.726Z,101042.03
2023-02-11T18:31:33.291Z,101043.06
2023-02-11T18:34:08.359Z,101042.38
2023-02-11T18:36:39.864Z,101042.38
2023-02-11T18:39:11.044Z,101046.09
2023-02-11T18:41:43.225Z,101040.38
2023-02-11T18:44:15.209Z,101036.69
2023-02-11T18:46:45.979Z,101041.06
2023-02-11T18:49:16.638Z,101038.53
2023-02-11T18:51:47.434Z,101035.31
2023-02-11T18:54:17.828Z,101038.00
2023-02-11T18:56:48.176Z,101038.00
2023-02-11T18:59:18.488Z,101042.06
2023-02-11T19:01:48.983Z,101038.34
2023-02-11T19:04:20.837Z,101031.28
2023-02-11T19:06:51.932Z,101050.31
2023-02-11T19:09:22.731Z,101034.50
2023-02-11T19:11:54.933Z,101038.03
2023-02-11T19:14:34.332Z,101040.72
2023-02-11T19:17:09.936Z,101041.72
2023-02-11T19:19:43.995Z,101039.03
2023-02-11T19:22:14.779Z,101045.63
2023-02-11T19:24:46.563Z,101039.38
2023-02-11T19:27:17.596Z,101043.94
2023-02-11T19:29:48.169Z,101044.09
2023-02-11T19:32:21.879Z,101042.41
2023-02-11T19:35:03.090Z,101050.84
2023-02-11T19:37:33.983Z,101049.50
2023-02-11T19:40:05.001Z,101057.22
2023-02-11T19:42:35.815Z,101047.66
2023-02-11T19:45:08.329Z,101052.38
2023-02-11T19:47:38.910Z,101053.53
2023-02-11T19:50:10.204Z,101056.22
2023-02-11T19:52:41.762Z,101060.59
2023-02-11T19:55:12.458Z,101055.56
2023-02-11T19:57:43.570Z,101052.19
2023-02-11T20:00:17.571Z,101055.56
2023-02-11T20:02:48.224Z,101055.06
2023-02-11T20:05:19.154Z,101047.66
2023-02-11T20:07:49.467Z,101055.91
2023-02-11T20:10:20.222Z,101063.97
2023-02-11T20:12:51.175Z,101056.91
2023-02-11T20:15:21.539Z,101058.78
2023-02-11T20:17:51.908Z,101063.31
2023-02-11T20:20:22.547Z,101069.03
2023-02-11T20:22:53.356Z,101070.72
2023-02-11T20:25:23.988Z,101074.06
2023-02-11T20:27:54.556Z,101071.56
2023-02-11T20:30:25.533Z,101077.28
2023-02-11T20:32:58.059Z,101076.44
2023-02-11T20:35:37.392Z,101082.66
2023-02-11T20:38:10.493Z,101077.63
2023-02-11T20:40:41.150Z,101090.06
2023-02-11T20:43:14.674Z,101093.25
2023-02-11T20:45:50.713Z,101088.88
2023-02-11T20:48:21.363Z,101088.19
2023-02-11T20:50:52.102Z,101087.03
2023-02-11T20:53:22.500Z,101087.88
2023-02-11T20:55:53.369Z,101095.25
2023-02-11T20:58:23.950Z,101097.28
2023-02-11T21:00:54.749Z,101099.97
2023-02-11T21:03:25.558Z,101108.03
2023-02-11T21:06:00.087Z,101107.72
2023-02-11T21:08:30.780Z,101107.72
2023-02-11T21:11:01.340Z,101102.34
2023-02-11T21:13:31.732Z,101102.66
2023-02-11T21:16:03.353Z,101114.28
2023-02-11T21:18:34.137Z,101106.69
2023-02-11T21:21:07.010Z,101113.09
2023-02-11T21:23:39.072Z,101113.44
2023-02-11T21:26:10.050Z,101118.81
2023-02-11T21:28:41.338Z,101116.44
2023-02-11T21:31:21.778Z,101122.50
2023-02-11T21:33:53.985Z,101122.00
2023-02-11T21:36:25.244Z,101133.59
2023-02-11T21:38:55.796Z,101134.78
2023-02-11T21:41:27.819Z,101138.97
2023-02-11T21:43:58.641Z,101137.47
2023-02-11T21:46:29.325Z,101139.31
2023-02-11T21:49:01.269Z,101146.56
2023-02-11T21:51:32.148Z,101139.31
2023-02-11T21:54:03.947Z,101145.56
2023-02-11T21:56:36.455Z,101151.44
2023-02-11T21:59:07.118Z,101152.63
2023-02-11T22:01:38.023Z,101160.84
2023-02-11T22:04:08.689Z,101165.50
2023-02-11T22:06:39.812Z,101166.53
2023-02-11T22:09:12.162Z,101161.47
2023-02-11T22:11:43.203Z,101166.84
2023-02-11T22:14:13.548Z,101166.84
2023-02-11T22:16:47.025Z,101172.22
2023-02-11T22:19:17.486Z,101170.56
2023-02-11T22:21:48.346Z,101179.63
2023-02-11T22:24:18.740Z,101178.81
2023-02-11T22:26:51.861Z,101185.00
2023-02-11T22:29:31.384Z,101190.38
2023-02-11T22:32:02.232Z,101201.50
2023-02-11T22:34:33.489Z,101201.97
2023-02-11T22:37:06.195Z,101215.09
2023-02-11T22:39:36.598Z,101216.97
2023-02-11T22:42:10.339Z,101212.59
2023-02-11T22:44:40.587Z,101218.97
2023-02-11T22:47:11.581Z,101219.97
2023-02-11T22:49:42.667Z,101218.31
2023-02-11T22:52:13.297Z,101219.66
2023-02-11T22:54:44.090Z,101228.75
2023-02-11T22:57:15.018Z,101228.75
2023-02-11T22:59:45.655Z,101229.56
2023-02-11T23:02:17.583Z,101235.44
2023-02-11T23:04:49.924Z,101227.56
2023-02-11T23:07:20.542Z,101233.78
2023-02-11T23:09:51.177Z,101243.38
2023-02-11T23:12:21.543Z,101249.56
2023-02-11T23:14:52.877Z,101245.88
2023-02-11T23:17:25.388Z,101251.25
2023-02-11T23:19:55.945Z,101252.63
2023-02-11T23:22:27.020Z,101251.94
2023-02-11T23:24:57.687Z,101247.56
2023-02-11T23:27:28.402Z,101254.47
2023-02-11T23:29:59.701Z,101256.03
2023-02-11T23:32:30.937Z,101258.56
2023-02-11T23:35:01.965Z,101249.50
2023-02-11T23:37:32.258Z,101256.88
2023-02-11T23:40:03.265Z,101257.38
2023-02-11T23:42:36.256Z,101259.38
2023-02-11T23:45:07.744Z,101260.06
2023-02-11T23:47:40.272Z,101256.72
2023-02-11T23:50:12.055Z,101252.19
2023-02-11T23:52:42.953Z,101252.03
2023-02-11T23:55:16.589Z,101258.94
2023-02-11T23:57:47.225Z,101252.38
